createdAt,value
2022-12-08T00:01:17.551Z,15.40
2022-12-08T00:03:49.660Z,16.27
2022-12-08T00:06:37.929Z,20.50
2022-12-08T00:09:19.895Z,15.73
2022-12-08T00:11:49.402Z,16.25
2022-12-08T00:14:18.939Z,18.10
2022-12-08T00:16:48.487Z,17.92
2022-12-08T00:19:20.625Z,19.42
2022-12-08T00:21:50.099Z,17.88
2022-12-08T00:24:19.661Z,18.98
2022-12-08T00:26:49.241Z,16.23
2022-12-08T00:29:18.804Z,15.13
2022-12-08T00:31:48.402Z,14.32
2022-12-08T00:34:20.509Z,14.75
2022-12-08T00:36:50.048Z,14.07
2022-12-08T00:39:19.707Z,13.27
2022-12-08T00:42:01.693Z,16.45
2022-12-08T00:44:31.187Z,15.13
2022-12-08T00:47:00.659Z,16.13
2022-12-08T00:49:32.779Z,15.75
2022-12-08T00:52:02.271Z,17.23
2022-12-08T00:54:31.841Z,15.43
2022-12-08T00:57:01.342Z,15.75
2022-12-08T00:59:30.823Z,15.02
2022-12-08T01:02:00.290Z,17.75
2022-12-08T01:04:32.386Z,18.67
2022-12-08T01:07:01.876Z,17.83
2022-12-08T01:09:31.350Z,16.20
2022-12-08T01:12:00.958Z,18.42
2022-12-08T01:14:30.431Z,17.92
2022-12-08T01:16:59.998Z,15.40
2022-12-08T01:19:32.099Z,16.33
2022-12-08T01:22:01.585Z,14.38
2022-12-08T01:24:31.085Z,13.70
2022-12-08T01:27:00.590Z,15.68
2022-12-08T01:29:30.326Z,14.75
2022-12-08T01:31:59.866Z,14.18
2022-12-08T01:34:31.968Z,14.57
2022-12-08T01:37:01.455Z,15.25
2022-12-08T01:39:30.947Z,15.77
2022-12-08T01:42:00.436Z,15.32
2022-12-08T01:44:58.067Z,16.90
2022-12-08T01:47:29.999Z,15.05
2022-12-08T01:50:02.524Z,16.15
2022-12-08T01:52:34.343Z,14.63
2022-12-08T01:55:05.448Z,15.80
2022-12-08T02:00:07.888Z,14.45
2022-12-08T02:02:55.091Z,16.10
2022-12-08T02:05:28.728Z,14.75
2022-12-08T02:07:58.463Z,15.73
2022-12-08T02:10:30.093Z,17.17
2022-12-08T02:12:59.668Z,16.02
2022-12-08T02:15:34.272Z,16.15
2022-12-08T02:18:09.192Z,16.73
2022-12-08T02:20:49.460Z,14.73
2022-12-08T02:23:25.927Z,15.03
2022-12-08T02:26:12.999Z,15.35
2022-12-08T02:28:53.319Z,14.48
2022-12-08T02:31:25.038Z,15.07
2022-12-08T02:34:07.044Z,16.73
2022-12-08T02:36:39.971Z,16.65
2022-12-08T02:39:14.224Z,14.90
2022-12-08T02:41:50.656Z,16.40
2022-12-08T02:44:20.809Z,17.52
2022-12-08T02:46:52.173Z,16.33
2022-12-08T02:49:24.211Z,17.25
2022-12-08T02:51:53.673Z,17.00
2022-12-08T02:54:23.140Z,16.35
2022-12-08T02:57:02.429Z,18.00
2022-12-08T02:59:38.658Z,19.05
2022-12-08T03:02:18.546Z,18.08
2022-12-08T03:04:54.924Z,15.80
2022-12-08T03:07:25.744Z,16.80
2022-12-08T03:09:57.937Z,16.92
2022-12-08T03:12:29.239Z,16.30
2022-12-08T03:14:59.782Z,17.05
2022-12-08T03:17:30.069Z,15.95
2022-12-08T03:20:02.974Z,15.57
2022-12-08T03:22:32.746Z,15.40
2022-12-08T03:25:02.230Z,15.13
2022-12-08T03:27:32.278Z,16.88
2022-12-08T03:30:02.915Z,15.05
2022-12-08T03:32:36.093Z,16.48
2022-12-08T03:35:09.342Z,15.95
2022-12-08T03:37:38.992Z,16.70
2022-12-08T03:40:11.128Z,16.10
2022-12-08T03:42:40.612Z,17.33
2022-12-08T03:45:10.672Z,15.70
2022-12-08T03:47:40.234Z,15.73
2022-12-08T03:50:13.209Z,17.20
2022-12-08T03:52:42.704Z,15.15
2022-12-08T03:55:12.474Z,17.00
2022-12-08T03:57:42.358Z,16.92
2022-12-08T04:00:14.707Z,17.83
2022-12-08T04:02:44.368Z,16.20
2022-12-08T04:05:16.585Z,16.27
2022-12-08T04:07:46.145Z,16.10
2022-12-08T04:10:15.665Z,15.68
2022-12-08T04:12:45.175Z,15.60
2022-12-08T04:15:14.878Z,14.48
2022-12-08T04:17:44.359Z,13.75
2022-12-08T04:20:16.906Z,15.13
2022-12-08T04:22:46.379Z,14.02
2022-12-08T04:25:15.997Z,15.32
2022-12-08T04:27:45.505Z,15.88
2022-12-08T04:30:15.398Z,13.95
2022-12-08T04:32:47.478Z,12.40
2022-12-08T04:35:20.084Z,13.68
2022-12-08T04:37:49.539Z,13.20
2022-12-08T04:40:19.078Z,12.80
2022-12-08T04:42:48.626Z,13.38
2022-12-08T04:45:18.211Z,13.07
2022-12-08T04:47:47.703Z,12.55
2022-12-08T04:50:19.885Z,13.82
2022-12-08T04:52:49.392Z,12.98
2022-12-08T04:55:18.945Z,13.32
2022-12-08T04:57:48.465Z,12.90
2022-12-08T05:00:18.897Z,13.20
2022-12-08T05:02:48.652Z,13.80
2022-12-08T05:05:20.942Z,12.48
2022-12-08T05:07:50.508Z,11.63
2022-12-08T05:10:20.110Z,12.02
2022-12-08T05:12:49.649Z,13.27
2022-12-08T05:15:19.288Z,13.80
2022-12-08T05:17:48.780Z,15.35
2022-12-08T05:20:20.939Z,12.98
2022-12-08T05:22:50.630Z,12.70
2022-12-08T05:25:20.271Z,14.63
2022-12-08T05:27:49.737Z,13.93
2022-12-08T05:30:19.373Z,13.18
2022-12-08T05:32:48.855Z,13.35
2022-12-08T05:35:21.093Z,14.30
2022-12-08T05:37:50.576Z,13.35
2022-12-08T05:40:20.346Z,13.05
2022-12-08T05:42:49.843Z,12.63
2022-12-08T05:45:19.336Z,12.85
2022-12-08T05:47:48.833Z,12.73
2022-12-08T05:50:21.051Z,13.38
2022-12-08T05:52:50.552Z,12.38
2022-12-08T05:55:20.330Z,12.70
2022-12-08T05:57:49.826Z,12.73
2022-12-08T06:00:20.720Z,13.73
2022-12-08T06:02:50.714Z,13.52
2022-12-08T06:05:22.955Z,13.67
2022-12-08T06:07:52.543Z,13.50
2022-12-08T06:10:22.041Z,15.23
2022-12-08T06:12:51.563Z,13.27
2022-12-08T06:15:21.193Z,14.25
2022-12-08T06:17:50.677Z,14.70
2022-12-08T06:20:22.856Z,13.27
2022-12-08T06:22:52.334Z,15.18
2022-12-08T06:25:21.894Z,14.00
2022-12-08T06:27:51.371Z,14.50
2022-12-08T06:30:20.993Z,13.52
2022-12-08T06:32:50.560Z,14.27
2022-12-08T06:35:20.066Z,16.17
2022-12-08T06:37:52.120Z,15.07
2022-12-08T06:40:21.949Z,14.57
2022-12-08T06:42:51.435Z,14.48
2022-12-08T06:45:21.143Z,14.57
2022-12-08T06:47:50.622Z,13.77
2022-12-08T06:50:20.100Z,16.13
2022-12-08T06:53:01.009Z,13.05
2022-12-08T06:58:23.633Z,13.32
2022-12-08T07:00:53.788Z,13.40
2022-12-08T07:03:23.389Z,14.43
2022-12-08T07:05:52.863Z,14.30
2022-12-08T07:08:25.013Z,14.43
2022-12-08T07:10:54.580Z,15.55
2022-12-08T07:13:24.058Z,14.32
2022-12-08T07:15:53.779Z,15.30
2022-12-08T07:18:23.256Z,13.98
2022-12-08T07:20:52.736Z,15.55
2022-12-08T07:23:24.772Z,15.63
2022-12-08T07:25:54.220Z,14.07
2022-12-08T07:28:23.883Z,14.73
2022-12-08T07:30:53.418Z,15.95
2022-12-08T07:33:22.923Z,15.48
2022-12-08T07:35:57.205Z,13.52
2022-12-08T07:38:29.370Z,15.70
2022-12-08T07:40:58.842Z,15.63
2022-12-08T07:43:28.310Z,15.77
2022-12-08T07:45:58.019Z,14.75
2022-12-08T07:48:27.564Z,15.27
2022-12-08T07:51:02.964Z,16.92
2022-12-08T07:53:35.020Z,15.57
2022-12-08T07:56:04.512Z,15.77
2022-12-08T07:58:33.989Z,15.32
2022-12-08T08:01:03.587Z,16.08
2022-12-08T08:03:33.187Z,15.70
2022-12-08T08:06:05.524Z,15.95
2022-12-08T08:08:37.554Z,14.50
2022-12-08T08:11:15.792Z,16.35
2022-12-08T08:13:48.686Z,14.68
2022-12-08T08:16:18.334Z,14.77
2022-12-08T08:18:49.389Z,15.85
2022-12-08T08:24:11.251Z,15.50
2022-12-08T08:26:40.808Z,16.20
2022-12-08T08:29:10.250Z,14.35
2022-12-08T08:31:39.786Z,15.05
2022-12-08T08:34:09.351Z,15.10
2022-12-08T08:36:39.819Z,15.43
2022-12-08T08:39:12.596Z,14.65
2022-12-08T08:41:42.440Z,14.30
2022-12-08T08:44:11.875Z,15.23
2022-12-08T08:46:41.447Z,14.05
2022-12-08T08:49:11.012Z,13.88
2022-12-08T08:51:40.508Z,14.68
2022-12-08T08:54:12.601Z,14.13
2022-12-08T08:56:42.115Z,14.43
2022-12-08T08:59:12.041Z,12.55
2022-12-08T09:01:41.617Z,13.18
2022-12-08T09:04:12.244Z,11.40
2022-12-08T09:06:43.189Z,12.13
2022-12-08T09:09:15.244Z,11.77
2022-12-08T09:11:44.744Z,11.10
2022-12-08T09:14:14.713Z,11.05
2022-12-08T09:16:44.304Z,11.98
2022-12-08T09:19:13.838Z,11.15
2022-12-08T09:21:43.435Z,11.77
2022-12-08T09:24:15.978Z,10.45
2022-12-08T09:26:46.861Z,12.38
2022-12-08T09:29:17.635Z,13.27
2022-12-08T09:31:47.213Z,13.95
2022-12-08T09:34:16.894Z,11.70
2022-12-08T09:36:46.404Z,11.93
2022-12-08T09:39:18.458Z,12.77
2022-12-08T09:41:50.108Z,10.77
2022-12-08T09:44:32.349Z,8.90
2022-12-08T09:47:02.012Z,9.43
2022-12-08T09:49:36.541Z,12.43
2022-12-08T09:52:06.098Z,11.55
2022-12-08T09:54:38.396Z,11.40
2022-12-08T09:57:10.119Z,9.93
2022-12-08T09:59:41.326Z,12.25
2022-12-08T10:02:16.082Z,10.70
2022-12-08T10:04:45.614Z,10.63
2022-12-08T10:07:16.401Z,11.70
2022-12-08T10:09:51.178Z,10.20
2022-12-08T10:12:22.808Z,8.88
2022-12-08T10:14:55.883Z,9.55
2022-12-08T10:17:26.938Z,10.55
2022-12-08T10:22:29.835Z,8.13
2022-12-08T10:25:02.865Z,10.90
2022-12-08T10:27:32.345Z,8.27
2022-12-08T10:30:02.051Z,9.85
2022-12-08T10:32:36.383Z,8.27
2022-12-08T10:35:08.537Z,9.23
2022-12-08T10:37:38.101Z,9.40
2022-12-08T10:40:13.419Z,10.80
2022-12-08T10:42:43.839Z,8.27
2022-12-08T10:45:24.749Z,7.63
2022-12-08T10:48:00.266Z,9.13
2022-12-08T10:50:34.997Z,8.02
2022-12-08T10:53:05.330Z,9.68
2022-12-08T10:55:42.909Z,10.95
2022-12-08T10:58:27.867Z,10.57
2022-12-08T11:00:58.503Z,9.80
2022-12-08T11:03:30.900Z,8.88
2022-12-08T11:06:07.067Z,10.27
2022-12-08T11:08:52.794Z,10.80
2022-12-08T11:11:27.694Z,11.60
2022-12-08T11:13:58.693Z,10.27
2022-12-08T11:16:28.274Z,8.73
2022-12-08T11:18:59.011Z,7.80
2022-12-08T11:21:36.356Z,11.00
2022-12-08T11:24:23.506Z,8.10
2022-12-08T11:26:55.618Z,8.27
2022-12-08T11:29:25.130Z,8.63
2022-12-08T11:31:56.163Z,8.65
2022-12-08T11:36:59.226Z,10.88
2022-12-08T11:39:31.533Z,10.73
2022-12-08T11:42:00.979Z,9.55
2022-12-08T11:44:33.830Z,8.80
2022-12-08T11:47:05.026Z,7.05
2022-12-08T11:49:36.758Z,8.43
2022-12-08T11:52:14.368Z,9.15
2022-12-08T11:54:48.595Z,7.30
2022-12-08T11:57:20.977Z,6.28
2022-12-08T11:59:53.699Z,6.68
2022-12-08T12:02:27.635Z,4.95
2022-12-08T12:05:01.867Z,7.57
2022-12-08T12:07:45.256Z,5.60
2022-12-08T12:10:40.268Z,7.03
2022-12-08T12:13:27.754Z,6.18
2022-12-08T12:16:15.110Z,6.60
2022-12-08T12:18:46.640Z,5.55
2022-12-08T12:21:19.306Z,6.25
2022-12-08T12:23:50.244Z,6.18
2022-12-08T12:26:23.775Z,5.82
2022-12-08T12:28:55.116Z,4.40
2022-12-08T12:31:26.352Z,5.32
2022-12-08T12:33:56.922Z,4.47
2022-12-08T12:36:26.643Z,4.32
2022-12-08T12:39:07.737Z,4.97
2022-12-08T12:41:45.889Z,5.93
2022-12-08T12:44:39.741Z,6.32
2022-12-08T12:47:13.502Z,6.00
2022-12-08T12:50:11.308Z,6.78
2022-12-08T12:52:50.841Z,4.20
2022-12-08T12:55:53.527Z,5.93
2022-12-08T12:58:42.685Z,5.10
2022-12-08T13:01:54.444Z,6.18
2022-12-08T13:04:27.996Z,5.00
2022-12-08T13:06:57.441Z,4.63
2022-12-08T13:09:34.701Z,4.85
2022-12-08T13:12:12.025Z,4.47
2022-12-08T13:14:49.246Z,4.05
2022-12-08T13:17:20.207Z,4.53
2022-12-08T13:19:53.578Z,4.68
2022-12-08T13:22:51.242Z,6.97
2022-12-08T13:25:56.589Z,5.28
2022-12-08T13:28:30.557Z,12.85
2022-12-08T13:31:03.425Z,8.00
2022-12-08T13:33:34.337Z,6.25
2022-12-08T13:36:08.357Z,5.28
2022-12-08T13:38:38.290Z,5.35
2022-12-08T13:41:11.124Z,4.72
2022-12-08T13:44:02.216Z,8.70
2022-12-08T13:53:41.903Z,5.10
2022-12-08T13:58:08.005Z,5.47
2022-12-08T14:00:37.554Z,4.47
2022-12-08T14:03:12.014Z,5.30
2022-12-08T14:06:11.014Z,5.97
2022-12-08T14:11:33.732Z,5.35
2022-12-08T14:14:07.335Z,5.05
2022-12-08T14:16:40.263Z,6.10
2022-12-08T14:19:18.174Z,7.13
2022-12-08T14:21:53.919Z,8.38
2022-12-08T14:24:24.808Z,7.45
2022-12-08T14:26:55.944Z,7.28
2022-12-08T14:32:03.654Z,8.38
2022-12-08T14:34:40.438Z,8.02
2022-12-08T14:37:14.495Z,7.53
2022-12-08T14:39:43.965Z,6.32
2022-12-08T14:42:16.556Z,7.65
2022-12-08T14:44:46.244Z,6.75
2022-12-08T14:47:21.459Z,6.80
2022-12-08T14:49:53.510Z,6.68
2022-12-08T14:52:23.056Z,8.20
2022-12-08T14:54:52.532Z,8.18
2022-12-08T14:57:22.028Z,8.10
2022-12-08T14:59:51.631Z,8.07
2022-12-08T15:02:29.193Z,9.25
2022-12-08T15:05:03.619Z,7.70
2022-12-08T15:07:33.896Z,6.85
2022-12-08T15:10:13.213Z,9.13
2022-12-08T15:12:42.711Z,6.38
2022-12-08T15:15:18.343Z,7.32
2022-12-08T15:17:51.681Z,7.63
2022-12-08T15:20:35.853Z,7.13
2022-12-08T15:23:05.417Z,7.18
2022-12-08T15:25:37.751Z,5.20
2022-12-08T15:28:08.006Z,6.38
2022-12-08T15:30:37.489Z,6.50
2022-12-08T15:33:07.090Z,8.48
2022-12-08T15:35:41.111Z,7.55
2022-12-08T15:38:15.638Z,8.07
2022-12-08T15:40:45.118Z,8.15
2022-12-08T15:43:14.597Z,10.48
2022-12-08T15:45:56.287Z,11.60
2022-12-08T15:48:29.616Z,11.30
2022-12-08T15:51:01.704Z,8.57
2022-12-08T15:53:31.216Z,9.02
2022-12-08T15:58:55.771Z,9.80
2022-12-08T16:01:26.437Z,11.70
2022-12-08T16:09:39.554Z,10.95
2022-12-08T16:12:22.345Z,9.45
2022-12-08T16:17:41.436Z,7.88
2022-12-08T16:20:15.159Z,7.38
2022-12-08T16:23:07.593Z,8.30
2022-12-08T16:26:09.032Z,8.15
2022-12-08T16:31:20.073Z,13.95
2022-12-08T16:33:52.451Z,11.30
2022-12-08T16:36:21.927Z,8.85
2022-12-08T16:38:53.983Z,10.63
2022-12-08T16:41:35.941Z,10.30
2022-12-08T16:44:05.624Z,10.40
2022-12-08T16:46:37.051Z,9.63
2022-12-08T16:49:07.142Z,9.82
2022-12-08T16:51:36.877Z,8.45
2022-12-08T16:54:09.022Z,9.30
2022-12-08T16:56:38.511Z,12.18
2022-12-08T16:59:07.955Z,14.32
2022-12-08T17:01:37.667Z,14.50
2022-12-08T17:04:30.478Z,14.25
2022-12-08T17:06:58.003Z,12.40
2022-12-08T17:09:30.845Z,20.73
2022-12-08T17:12:03.818Z,22.00
2022-12-08T17:14:35.681Z,19.40
2022-12-08T17:17:05.261Z,19.55
2022-12-08T17:19:34.868Z,16.98
2022-12-08T17:22:04.799Z,16.67
2022-12-08T17:24:36.896Z,18.55
2022-12-08T17:27:06.830Z,14.13
2022-12-08T17:29:36.398Z,14.00
2022-12-08T17:32:05.984Z,15.00
2022-12-08T17:34:35.484Z,12.63
2022-12-08T17:37:04.973Z,11.50
2022-12-08T17:39:37.036Z,13.13
2022-12-08T17:42:06.976Z,12.32
2022-12-08T17:44:36.549Z,13.02
2022-12-08T17:47:06.525Z,10.85
2022-12-08T17:49:36.155Z,11.18
2022-12-08T17:52:08.581Z,13.88
2022-12-08T17:54:40.743Z,13.75
2022-12-08T17:57:10.220Z,15.65
2022-12-08T17:59:39.773Z,16.17
2022-12-08T18:02:09.963Z,14.32
2022-12-08T18:04:39.632Z,13.43
2022-12-08T18:07:09.098Z,13.30
2022-12-08T18:09:41.985Z,12.10
2022-12-08T18:12:11.448Z,17.75
2022-12-08T18:14:40.939Z,17.75
2022-12-08T18:17:10.436Z,17.42
2022-12-08T18:19:39.974Z,19.85
2022-12-08T18:22:09.473Z,21.15
2022-12-08T18:24:41.548Z,20.92
2022-12-08T18:27:11.139Z,18.02
2022-12-08T18:29:40.616Z,17.80
2022-12-08T18:32:10.225Z,17.20
2022-12-08T18:34:39.665Z,12.40
2022-12-08T18:37:09.142Z,13.18
2022-12-08T18:39:41.187Z,10.27
2022-12-08T18:42:23.330Z,9.90
2022-12-08T18:44:56.146Z,11.45
2022-12-08T18:47:25.698Z,11.10
2022-12-08T18:49:55.176Z,10.90
2022-12-08T18:52:31.198Z,11.90
2022-12-08T18:55:06.708Z,12.77
2022-12-08T18:57:36.864Z,17.08
2022-12-08T19:00:07.142Z,22.67
2022-12-08T19:02:36.794Z,24.95
2022-12-08T19:05:06.572Z,29.42
2022-12-08T19:07:36.068Z,22.88
2022-12-08T19:10:09.533Z,17.30
2022-12-08T19:12:39.214Z,14.80
2022-12-08T19:15:09.763Z,12.38
2022-12-08T19:17:39.382Z,12.40
2022-12-08T19:20:10.517Z,12.95
2022-12-08T19:25:12.268Z,12.65
2022-12-08T19:27:41.756Z,11.68
2022-12-08T19:30:13.157Z,11.05
2022-12-08T19:32:42.666Z,13.57
2022-12-08T19:35:12.225Z,20.52
2022-12-08T19:37:41.722Z,21.25
2022-12-08T19:40:27.544Z,35.53
2022-12-08T19:43:09.505Z,49.05
2022-12-08T19:45:39.167Z,37.45
2022-12-08T19:48:08.967Z,25.65
2022-12-08T19:50:41.470Z,22.50
2022-12-08T19:53:11.994Z,21.02
2022-12-08T19:55:44.336Z,19.60
2022-12-08T19:58:14.233Z,15.73
2022-12-08T20:00:44.036Z,20.20
2022-12-08T20:03:13.670Z,14.13
2022-12-08T20:05:43.470Z,11.50
2022-12-08T20:08:13.115Z,13.77
2022-12-08T20:10:45.873Z,12.70
2022-12-08T20:13:27.831Z,12.38
2022-12-08T20:15:57.504Z,12.13
2022-12-08T20:18:28.671Z,13.00
2022-12-08T20:23:27.414Z,12.85
2022-12-08T20:25:59.507Z,12.40
2022-12-08T20:28:28.981Z,14.07
2022-12-08T20:30:58.485Z,12.98
2022-12-08T20:33:28.076Z,12.48
2022-12-08T20:36:00.971Z,12.68
2022-12-08T20:38:30.527Z,12.55
2022-12-08T20:41:02.619Z,12.27
2022-12-08T20:43:32.118Z,12.85
2022-12-08T20:46:01.664Z,12.45
2022-12-08T20:48:31.293Z,13.15
2022-12-08T20:51:00.886Z,11.00
2022-12-08T20:53:30.402Z,12.32
2022-12-08T20:56:02.558Z,12.18
2022-12-08T20:58:32.179Z,11.48
2022-12-08T21:01:01.838Z,11.07
2022-12-08T21:03:31.614Z,11.52
2022-12-08T21:06:01.321Z,11.63
2022-12-08T21:08:31.183Z,12.15
2022-12-08T21:11:03.289Z,12.90
2022-12-08T21:13:33.305Z,13.25
2022-12-08T21:16:02.918Z,13.82
2022-12-08T21:18:39.015Z,11.48
2022-12-08T21:21:10.084Z,14.13
2022-12-08T21:23:39.706Z,11.95
2022-12-08T21:26:15.287Z,13.65
2022-12-08T21:28:45.013Z,12.68
2022-12-08T21:31:15.473Z,13.25
2022-12-08T21:33:45.125Z,13.52
2022-12-08T21:36:15.588Z,14.73
2022-12-08T21:38:45.587Z,13.32
2022-12-08T21:41:38.716Z,12.82
2022-12-08T21:44:08.335Z,11.23
2022-12-08T21:46:38.090Z,13.02
2022-12-08T21:49:07.762Z,10.90
2022-12-08T21:51:41.849Z,11.55
2022-12-08T21:54:16.736Z,9.90
2022-12-08T21:56:51.395Z,9.48
2022-12-08T21:59:21.006Z,8.98
2022-12-08T22:01:50.933Z,8.57
2022-12-08T22:04:21.775Z,8.20
2022-12-08T22:06:51.440Z,8.50
2022-12-08T22:09:21.097Z,8.32
2022-12-08T22:11:53.388Z,8.52
2022-12-08T22:14:22.927Z,8.60
2022-12-08T22:16:52.649Z,9.48
2022-12-08T22:19:24.447Z,9.98
2022-12-08T22:21:55.084Z,9.57
2022-12-08T22:24:24.888Z,10.55
2022-12-08T22:26:57.159Z,11.77
2022-12-08T22:29:26.955Z,10.63
2022-12-08T22:31:56.665Z,12.35
2022-12-08T22:34:26.345Z,11.82
2022-12-08T22:36:56.120Z,14.18
2022-12-08T22:39:25.937Z,14.68
2022-12-08T22:41:58.106Z,14.02
2022-12-08T22:44:27.809Z,13.63
2022-12-08T22:46:57.648Z,16.17
2022-12-08T22:49:27.692Z,13.88
2022-12-08T22:51:57.271Z,13.52
2022-12-08T22:54:27.445Z,12.30
2022-12-08T22:56:59.684Z,13.27
2022-12-08T22:59:29.262Z,12.13
2022-12-08T23:01:58.948Z,11.77
2022-12-08T23:04:28.561Z,12.13
2022-12-08T23:06:58.094Z,11.95
2022-12-08T23:09:27.655Z,15.15
2022-12-08T23:11:59.746Z,13.75
2022-12-08T23:14:29.526Z,14.13
2022-12-08T23:16:59.168Z,14.45
2022-12-08T23:19:28.740Z,14.00
2022-12-08T23:21:58.297Z,14.68
2022-12-08T23:24:27.788Z,14.98
2022-12-08T23:26:59.840Z,13.32
2022-12-08T23:29:29.309Z,12.40
2022-12-08T23:31:59.028Z,12.48
2022-12-08T23:34:28.673Z,12.32
2022-12-08T23:36:58.195Z,10.23
2022-12-08T23:39:27.890Z,11.85
2022-12-08T23:41:59.971Z,12.30
2022-12-08T23:44:29.621Z,14.70
2022-12-08T23:46:59.328Z,12.88
2022-12-08T23:49:29.328Z,15.32
2022-12-08T23:51:58.955Z,16.73
2022-12-08T23:54:28.432Z,14.27
2022-12-08T23:57:00.612Z,14.13
2022-12-08T23:59:30.078Z,14.60
